This is the latest recevied weather packets stored in our database for station/object SR2GKG-13. If no packets are shown the sender has not sent any weather packets the latest 10 day(s).
| Time | Temp. | Humidity | Pressure | Rain* | Wind** | Luminosity | Snow |
|---|---|---|---|---|---|---|---|
| 1777616628 | 20.56° C | 31% | 1015.3 hPa | - | - | - | - |
| 1777615728 | 18.33° C | 35% | 1015.2 hPa | - | - | - | - |
| 1777614827 | 16.67° C | 38% | 1015.3 hPa | - | - | - | - |
| 1777613927 | 13.33° C | 47% | 1015.2 hPa | - | - | - | - |
| 1777613027 | 10.56° C | 54% | 1015.2 hPa | - | - | - | - |
| 1777612127 | 9.44° C | 58% | 1015.2 hPa | - | - | - | - |
| 1777611227 | 7.22° C | 64% | 1015.3 hPa | - | - | - | - |
| 1777610327 | 6.11° C | 67% | 1015.4 hPa | - | - | - | - |
| 1777609427 | 5° C | 70% | 1015.4 hPa | - | - | - | - |
| 1777608527 | 3.89° C | 73% | 1015.3 hPa | - | - | - | - |
| 1777607627 | 3.33° C | 75% | 1015.3 hPa | - | - | - | - |
| 1777606727 | 2.78° C | 74% | 1015.3 hPa | - | - | - | - |
| 1777605827 | 3.33° C | 72% | 1015.2 hPa | - | - | - | - |
| 1777604926 | 3.33° C | 72% | 1015.2 hPa | - | - | - | - |
| 1777604026 | 2.78° C | 73% | 1015.3 hPa | - | - | - | - |
| 1777603126 | 2.78° C | 72% | 1015.4 hPa | - | - | - | - |
| 1777602226 | 3.33° C | 72% | 1015.3 hPa | - | - | - | - |
| 1777601326 | 3.33° C | 70% | 1015.3 hPa | - | - | - | - |
| 1777600426 | 3.33° C | 70% | 1015.4 hPa | - | - | - | - |
| 1777599526 | 3.89° C | 68% | 1015.4 hPa | - | - | - | - |
| 1777598626 | 3.89° C | 67% | 1015.3 hPa | - | - | - | - |
| 1777597726 | 4.44° C | 65% | 1015.2 hPa | - | - | - | - |
| 1777596826 | 4.44° C | 63% | 1015.3 hPa | - | - | - | - |
| 1777595925 | 5.56° C | 59% | 1015.2 hPa | - | - | - | - |
| 1777595025 | 5.56° C | 58% | 1015.2 hPa | - | - | - | - |
* Rain since midnight (hover to see other rain measurements)
** Current wind speed in m/s (hover to see current wind gust speed)